.
WxDataArchive / Data Records for 2008-12-01
2008-11-30 December 2008 2008-12-02

Data Records for Monday, 01 December 2008

Time	Temp	Chill	HIndex	Humid	Dewpt	 Wind 	HiWind	WindDir	Rain 	Barom 
-----	----	-----	------	-----	-----	------	------	-------	-----	----- 
00:00	32.5	32.5	32.5	93	30.7	2	5	248	0.00	29.191 
00:05	32.5	32.5	32.5	93	30.7	3	6	248	0.00	29.190 
00:10	32.5	32.5	32.5	93	30.7	1	4	248	0.00	29.189 
00:15	32.5	32.5	32.5	92	30.4	2	6	248	0.00	29.191 
00:20	32.5	32.5	32.5	92	30.4	2	5	248	0.00	29.189 
00:25	32.5	32.5	32.5	91	30.2	2	6	248	0.00	29.187 
00:30	32.5	32.5	32.5	91	30.2	2	5	248	0.00	29.186 
00:35	32.5	32.5	32.5	90	29.9	2	9	248	0.00	29.185 
00:40	32.5	32.5	32.5	89	29.6	2	6	248	0.00	29.183 
00:45	32.5	32.5	32.5	89	29.6	2	7	225	0.00	29.183 
00:50	32.5	32.5	32.5	88	29.3	1	5	248	0.00	29.183 
00:55	32.5	32.5	32.5	88	29.3	1	3	248	0.00	29.182 
01:00	32.5	32.5	32.5	87	29.1	2	10	248	0.00	29.182 
01:05	32.5	32.5	32.5	87	29.1	2	5	248	0.00	29.180 
01:10	32.5	32.5	32.5	86	28.8	1	6	248	0.00	29.178 
01:15	32.5	32.5	32.5	86	28.8	1	4	225	0.00	29.178 
01:20	32.5	32.5	32.5	86	28.8	2	9	248	0.00	29.181 
01:25	32.5	32.5	32.5	85	28.5	2	9	248	0.00	29.181 
01:30	32.5	32.5	32.5	85	28.5	2	5	248	0.00	29.181 
01:35	32.5	32.5	32.5	85	28.5	2	4	248	0.00	29.182 
01:40	32.5	32.5	32.5	85	28.5	1	5	248	0.00	29.183 
01:45	32.5	32.5	32.5	85	28.5	0	3	248	0.00	29.182 
01:50	32.5	32.5	32.5	85	28.5	1	6	248	0.00	29.183 
01:55	32.5	32.5	32.5	85	28.5	1	5	248	0.00	29.183 
02:00	32.5	32.5	32.5	86	28.8	2	6	248	0.00	29.182 
02:05	32.5	32.5	32.5	86	28.8	1	6	248	0.00	29.183 
02:10	32.5	32.5	32.5	87	29.1	1	3	248	0.00	29.183 
02:15	32.4	32.4	32.4	87	29.0	1	4	248	0.00	29.185 
02:20	32.4	32.4	32.4	88	29.3	2	6	248	0.00	29.184 
02:25	32.4	32.4	32.4	89	29.5	1	6	248	0.00	29.185 
02:30	32.2	32.2	32.2	90	29.6	1	6	248	0.00	29.185 
02:35	32.2	32.2	32.2	90	29.6	1	5	225	0.00	29.185 
02:40	32.2	32.2	32.2	91	29.9	2	5	225	0.00	29.185 
02:45	32.2	32.2	32.2	91	29.9	1	5	225	0.00	29.186 
02:50	32.1	32.1	32.1	92	30.0	1	6	225	0.00	29.187 
02:55	32.1	32.1	32.1	92	30.0	1	3	248	0.00	29.187 
03:00	32.2	32.2	32.2	92	30.1	2	9	248	0.00	29.188 
03:05	32.2	32.2	32.2	92	30.1	1	5	248	0.00	29.188 
03:10	32.2	32.2	32.2	92	30.1	2	6	248	0.00	29.187 
03:15	32.2	32.2	32.2	92	30.1	1	5	248	0.00	29.186 
03:20	32.2	32.2	32.2	92	30.1	2	6	248	0.00	29.185 
03:25	32.2	32.2	32.2	93	30.4	2	7	248	0.00	29.186 
03:30	32.2	32.2	32.2	93	30.4	1	6	248	0.00	29.185 
03:35	32.2	32.2	32.2	93	30.4	2	4	248	0.00	29.185 
03:40	32.4	32.4	32.4	93	30.6	2	7	248	0.00	29.186 
03:45	32.4	32.4	32.4	93	30.6	1	4	248	0.00	29.186 
03:50	32.4	32.4	32.4	93	30.6	2	6	225	0.00	29.186 
03:55	32.4	32.4	32.4	93	30.6	1	5	248	0.00	29.185 
04:00	32.4	32.4	32.4	93	30.6	1	6	248	0.00	29.186 
04:05	32.4	32.4	32.4	93	30.6	1	3	248	0.00	29.188 
04:10	32.5	32.5	32.5	93	30.7	1	4	248	0.00	29.185 
04:15	32.5	32.5	32.5	93	30.7	2	5	248	0.00	29.184 
04:20	32.5	32.5	32.5	93	30.7	1	3	248	0.00	29.185 
04:25	32.5	32.5	32.5	93	30.7	2	5	248	0.00	29.185 
04:30	32.5	32.5	32.5	93	30.7	2	6	248	0.00	29.184 
04:35	32.5	32.5	32.5	92	30.4	2	4	248	0.00	29.184 
04:40	32.5	32.5	32.5	92	30.4	1	5	248	0.00	29.185 
04:45	32.7	32.7	32.7	92	30.6	1	7	248	0.00	29.184 
04:50	32.7	32.7	32.7	92	30.6	2	7	248	0.00	29.184 
04:55	32.7	32.7	32.7	92	30.6	2	6	248	0.00	29.185 
05:00	32.7	32.7	32.7	92	30.6	1	7	225	0.00	29.185 
05:05	32.7	32.7	32.7	91	30.4	2	7	248	0.00	29.186 
05:10	32.7	32.7	32.7	91	30.4	2	6	248	0.00	29.186 
05:15	32.7	32.7	32.7	91	30.4	1	6	248	0.00	29.186 
05:20	32.7	32.7	32.7	91	30.4	1	5	248	0.00	29.186 
05:25	32.7	32.7	32.7	91	30.4	1	4	248	0.00	29.188 
05:30	32.7	32.7	32.7	91	30.4	2	5	248	0.00	29.190 
05:35	32.7	32.7	32.7	91	30.4	1	4	248	0.00	29.190 
05:40	32.7	32.7	32.7	90	30.1	2	5	248	0.00	29.192 
05:45	32.7	32.7	32.7	90	30.1	1	6	270	0.00	29.195 
05:50	32.7	32.7	32.7	90	30.1	2	6	248	0.00	29.193 
05:55	32.7	32.7	32.7	91	30.4	1	5	248	0.00	29.192 
06:00	32.7	32.7	32.7	91	30.4	1	4	248	0.00	29.195 
06:05	32.7	32.7	32.7	91	30.4	1	4	248	0.00	29.196 
06:10	32.7	32.7	32.7	91	30.4	1	3	248	0.00	29.197 
06:15	32.5	32.5	32.5	91	30.2	1	5	248	0.00	29.199 
06:20	32.5	32.5	32.5	91	30.2	1	6	248	0.00	29.200 
06:25	32.5	32.5	32.5	91	30.2	1	4	248	0.00	29.200 
06:30	32.5	32.5	32.5	91	30.2	1	4	248	0.00	29.200 
06:35	32.4	32.4	32.4	92	30.3	1	5	248	0.00	29.201 
06:40	32.4	32.4	32.4	92	30.3	1	3	248	0.00	29.204 
06:45	32.4	32.4	32.4	92	30.3	1	3	248	0.00	29.208 
06:50	32.4	32.4	32.4	92	30.3	1	4	248	0.00	29.210 
06:55	32.4	32.4	32.4	92	30.3	1	4	248	0.00	29.213 
07:00	32.4	32.4	32.4	92	30.3	1	5	248	0.00	29.214 
07:05	32.4	32.4	32.4	92	30.3	1	2	248	0.00	29.216 
07:10	32.4	32.4	32.4	92	30.3	1	4	248	0.00	29.217 
07:15	32.4	32.4	32.4	92	30.3	1	4	248	0.00	29.217 
07:20	32.4	32.4	32.4	92	30.3	1	5	248	0.00	29.218 
07:25	32.4	32.4	32.4	93	30.6	0	2	248	0.00	29.219 
07:30	32.2	32.2	32.2	93	30.4	1	4	248	0.00	29.221 
07:35	32.2	32.2	32.2	93	30.4	1	4	248	0.00	29.222 
07:40	32.2	32.2	32.2	93	30.4	1	3	248	0.00	29.225 
07:45	32.2	32.2	32.2	93	30.4	1	5	248	0.00	29.227 
07:50	32.2	32.2	32.2	93	30.4	1	3	248	0.00	29.231 
07:55	32.2	32.2	32.2	93	30.4	1	4	248	0.00	29.231 
08:00	32.4	32.4	32.4	93	30.6	2	6	248	0.00	29.231 
08:05	32.4	32.4	32.4	93	30.6	2	5	248	0.00	29.232 
08:10	32.4	32.4	32.4	93	30.6	1	7	248	0.00	29.233 
08:15	32.4	32.4	32.4	93	30.6	1	3	248	0.00	29.234 
08:20	32.4	32.4	32.4	93	30.6	2	5	248	0.00	29.234 
08:25	32.4	32.4	32.4	93	30.6	0	1	248	0.00	29.235 
08:30	32.5	32.5	32.5	93	30.7	1	4	248	0.00	29.235 
08:35	32.5	32.5	32.5	93	30.7	1	4	248	0.00	29.239 
08:40	32.5	32.5	32.5	93	30.7	1	3	248	0.00	29.242 
08:45	32.5	32.5	32.5	93	30.7	1	4	248	0.00	29.246 
08:50	32.7	32.7	32.7	93	30.9	1	6	248	0.00	29.248 
08:55	32.7	32.7	32.7	93	30.9	2	5	248	0.00	29.250 
09:00	32.7	32.7	32.7	93	30.9	1	5	248	0.00	29.257 
09:05	32.7	32.7	32.7	93	30.9	2	6	248	0.00	29.261 
09:10	32.8	32.8	32.8	93	31.0	2	5	248	0.00	29.262 
09:15	32.8	32.8	32.8	93	31.0	1	5	248	0.00	29.264 
09:20	32.8	32.8	32.8	93	31.0	2	5	248	0.00	29.268 
09:25	32.8	32.8	32.8	93	31.0	2	5	270	0.00	29.274 
09:30	32.9	32.9	32.9	93	31.1	2	4	248	0.00	29.276 
09:35	32.9	32.9	32.9	93	31.1	1	3	248	0.00	29.278 
09:40	32.9	32.9	32.9	93	31.1	2	4	248	0.00	29.280 
09:45	33.1	33.1	33.1	93	31.3	2	9	270	0.00	29.284 
09:50	33.1	33.1	33.1	93	31.3	2	6	248	0.00	29.288 
09:55	33.2	33.2	33.2	93	31.4	2	6	248	0.01	29.289 
10:00	33.4	33.4	33.4	93	31.6	2	4	248	0.00	29.293 
10:05	33.4	33.4	33.4	93	31.6	1	4	225	0.00	29.295 
10:10	33.5	33.5	33.5	93	31.7	1	3	248	0.00	29.295 
10:15	33.7	33.7	33.7	93	31.9	2	3	248	0.00	29.301 
10:20	33.7	33.7	33.7	93	31.9	1	4	248	0.01	29.307 
10:25	33.8	33.8	33.8	93	32.0	2	3	248	0.00	29.310 
10:30	33.8	33.8	33.8	93	32.0	2	6	248	0.00	29.313 
10:35	33.8	33.8	33.8	92	31.7	2	4	270	0.00	29.316 
10:40	33.8	33.8	33.8	92	31.7	2	4	248	0.01	29.321 
10:45	33.7	33.7	33.7	92	31.6	2	5	248	0.00	29.324 
10:50	33.8	33.8	33.8	92	31.7	1	3	248	0.00	29.325 
10:55	33.7	33.7	33.7	92	31.6	2	6	270	0.00	29.327 
11:00	33.7	33.7	33.7	91	31.4	3	6	270	0.00	29.332 
11:05	34.0	34.0	34.0	91	31.7	2	5	270	0.01	29.339 
11:10	34.1	34.1	34.1	90	31.5	2	6	270	0.00	29.341 
11:15	34.1	34.1	34.1	89	31.2	2	4	270	0.00	29.343 
11:20	34.1	34.1	34.1	88	30.9	2	6	292	0.00	29.345 
11:25	34.1	34.1	34.1	88	30.9	2	5	270	0.00	29.346 
11:30	34.6	34.6	34.6	88	31.4	2	4	248	0.00	29.351 
11:35	35.0	35.0	35.0	87	31.5	3	6	270	0.01	29.354 
11:40	35.2	35.2	35.2	86	31.4	2	6	270	0.00	29.356 
11:45	35.2	31.8	35.2	84	30.9	4	7	270	0.00	29.357 
11:50	35.3	35.3	35.3	83	30.7	2	6	270	0.00	29.357 
11:55	35.5	35.5	35.5	81	30.3	3	8	315	0.00	29.358 
12:00	35.6	35.6	35.6	82	30.7	3	6	270	0.00	29.361 
12:05	35.5	35.5	35.5	80	30.0	3	7	248	0.01	29.363 
12:10	35.5	35.5	35.5	80	30.0	3	5	270	0.00	29.368 
12:15	35.9	35.9	35.9	81	30.6	2	8	270	0.00	29.370 
12:20	36.9	36.9	36.9	81	31.6	2	6	270	0.00	29.370 
12:25	37.0	37.0	37.0	79	31.1	2	6	292	0.00	29.370 
12:30	36.6	36.6	36.6	77	30.1	3	11	270	0.00	29.372 
12:35	36.6	36.6	36.6	78	30.4	2	6	270	0.00	29.376 
12:40	36.8	36.8	36.8	78	30.6	2	6	292	0.00	29.384 
12:45	36.6	36.6	36.6	78	30.4	3	6	270	0.01	29.386 
12:50	36.6	36.6	36.6	78	30.4	3	6	270	0.00	29.386 
12:55	36.5	36.5	36.5	79	30.6	3	6	270	0.00	29.388 
13:00	36.2	36.2	36.2	80	30.6	3	7	270	0.00	29.394 
13:05	35.9	35.9	35.9	82	31.0	3	7	270	0.00	29.400 
13:10	35.9	35.9	35.9	84	31.5	2	7	270	0.00	29.404 
13:15	35.8	35.8	35.8	84	31.4	3	10	248	0.01	29.407 
13:20	35.6	35.6	35.6	85	31.5	2	6	270	0.00	29.410 
13:25	35.6	35.6	35.6	85	31.5	2	5	248	0.00	29.418 
13:30	35.5	35.5	35.5	85	31.4	3	7	270	0.00	29.419 
13:35	35.8	35.8	35.8	85	31.7	3	6	270	0.00	29.421 
13:40	35.6	32.2	35.6	84	31.3	4	9	270	0.00	29.427 
13:45	35.5	35.5	35.5	84	31.2	3	6	270	0.00	29.432 
13:50	35.6	35.6	35.6	84	31.3	3	7	270	0.00	29.435 
13:55	35.6	32.2	35.6	82	30.7	4	9	270	0.00	29.436 
14:00	35.8	32.5	35.8	81	30.6	4	7	270	0.00	29.442 
14:05	35.8	35.8	35.8	81	30.6	3	6	270	0.00	29.447 
14:10	35.9	35.9	35.9	81	30.6	3	10	248	0.00	29.449 
14:15	35.6	32.2	35.6	80	30.1	4	12	270	0.00	29.454 
14:20	35.5	32.1	35.5	80	30.0	4	10	270	0.00	29.456 
14:25	35.5	32.1	35.5	80	30.0	4	9	270	0.01	29.463 
14:30	35.3	31.9	35.3	80	29.8	4	9	270	0.00	29.469 
14:35	35.3	35.3	35.3	80	29.8	3	7	270	0.00	29.474 
14:40	35.3	35.3	35.3	80	29.8	3	4	270	0.00	29.481 
14:45	35.3	35.3	35.3	80	29.8	3	10	270	0.00	29.484 
14:50	35.3	35.3	35.3	77	28.8	3	10	270	0.00	29.485 
14:55	35.2	31.8	35.2	80	29.7	4	9	270	0.00	29.493 
15:00	35.0	31.5	35.0	80	29.5	4	11	270	0.00	29.496 
15:05	34.6	30.1	34.6	82	29.7	5	13	270	0.00	29.500 
15:10	34.1	34.1	34.1	84	29.8	3	6	270	0.00	29.504 
15:15	34.0	34.0	34.0	86	30.3	2	3	270	0.00	29.513 
15:20	33.7	33.7	33.7	87	30.3	3	9	270	0.00	29.515 
15:25	33.5	33.5	33.5	88	30.3	3	7	248	0.00	29.521 
15:30	33.4	33.4	33.4	88	30.2	3	9	248	0.00	29.528 
15:35	33.4	33.4	33.4	89	30.5	3	6	248	0.00	29.531 
15:40	33.1	33.1	33.1	89	30.2	3	10	270	0.00	29.534 
15:45	32.9	32.9	32.9	90	30.3	3	9	270	0.00	29.538 
15:50	32.8	32.8	32.8	90	30.2	3	7	270	0.00	29.547 
15:55	32.7	32.7	32.7	90	30.1	3	10	248	0.00	29.549 
16:00	32.5	32.5	32.5	90	29.9	3	9	270	0.00	29.554 
16:05	32.5	32.5	32.5	91	30.2	2	7	248	0.00	29.556 
16:10	32.4	28.5	32.4	91	30.1	4	12	248	0.00	29.562 
16:15	32.2	28.3	32.2	91	29.9	4	11	270	0.00	29.568 
16:20	32.2	28.3	32.2	91	29.9	4	9	248	0.00	29.575 
16:25	32.1	32.1	32.1	92	30.0	2	9	248	0.00	29.578 
16:30	31.9	31.9	31.9	92	29.8	3	5	270	0.00	29.581 
16:35	31.8	31.8	31.8	92	29.7	3	13	270	0.00	29.584 
16:40	31.6	31.6	31.6	92	29.5	3	8	270	0.00	29.591 
16:45	31.5	31.5	31.5	92	29.4	3	7	248	0.00	29.595 
16:50	31.2	27.2	31.2	92	29.2	4	9	270	0.00	29.597 
16:55	31.2	31.2	31.2	92	29.2	3	12	270	0.00	29.603 
17:00	31.0	31.0	31.0	92	29.0	3	6	270	0.00	29.609 
17:05	30.9	26.8	30.9	92	28.9	4	10	270	0.00	29.612 
17:10	30.9	26.8	30.9	92	28.9	4	14	270	0.00	29.618 
17:15	30.7	30.7	30.7	92	28.7	3	9	270	0.00	29.625 
17:20	30.7	30.7	30.7	92	28.7	3	9	270	0.00	29.628 
17:25	30.6	26.5	30.6	92	28.6	4	8	248	0.00	29.632 
17:30	30.4	26.2	30.4	91	28.1	4	10	270	0.00	29.641 
17:35	30.3	26.1	30.3	91	28.0	4	7	270	0.00	29.644 
17:40	30.3	30.3	30.3	91	28.0	3	10	248	0.00	29.646 
17:45	30.1	25.9	30.1	91	27.8	4	12	270	0.00	29.649 
17:50	30.0	30.0	30.0	91	27.7	3	7	270	0.00	29.657 
17:55	30.0	25.8	30.0	91	27.7	4	13	270	0.00	29.661 
18:00	29.8	29.8	29.8	91	27.5	3	7	270	0.00	29.664 
18:05	29.7	29.7	29.7	91	27.4	3	9	248	0.00	29.671 
18:10	29.7	29.7	29.7	91	27.4	3	7	270	0.00	29.676 
18:15	29.5	25.2	29.5	91	27.2	4	9	270	0.00	29.677 
18:20	29.5	29.5	29.5	91	27.2	3	7	248	0.00	29.679 
18:25	29.4	29.4	29.4	91	27.1	3	10	248	0.00	29.688 
18:30	29.4	25.1	29.4	91	27.1	4	10	270	0.00	29.692 
18:35	29.3	29.3	29.3	91	27.0	3	10	248	0.00	29.694 
18:40	29.3	29.3	29.3	91	27.0	3	7	270	0.00	29.698 
18:45	29.1	24.7	29.1	91	26.8	4	11	270	0.00	29.704 
18:50	29.1	24.7	29.1	91	26.8	4	9	270	0.00	29.707 
18:55	29.0	24.6	29.0	91	26.7	4	9	270	0.00	29.711 
19:00	29.1	29.1	29.1	91	26.8	3	7	270	0.00	29.711 
19:05	29.0	29.0	29.0	90	26.4	3	6	270	0.00	29.713 
19:10	29.0	29.0	29.0	90	26.4	3	8	248	0.00	29.719 
19:15	28.8	28.8	28.8	90	26.2	3	7	248	0.00	29.725 
19:20	28.8	28.8	28.8	90	26.2	3	6	270	0.00	29.727 
19:25	28.7	28.7	28.7	90	26.1	3	7	248	0.00	29.734 
19:30	28.7	28.7	28.7	89	25.9	3	9	270	0.00	29.739 
19:35	28.7	28.7	28.7	89	25.9	3	9	270	0.00	29.741 
19:40	28.5	24.0	28.5	89	25.7	4	12	270	0.00	29.743 
19:45	28.4	23.9	28.4	89	25.6	4	10	270	0.00	29.745 
19:50	28.4	23.9	28.4	88	25.3	4	10	270	0.00	29.748 
19:55	28.4	28.4	28.4	88	25.3	3	9	270	0.00	29.754 
20:00	28.4	28.4	28.4	88	25.3	3	7	270	0.00	29.758 
20:05	28.2	28.2	28.2	89	25.4	2	6	270	0.00	29.762 
20:10	28.2	28.2	28.2	89	25.4	3	6	270	0.00	29.764 
20:15	28.2	28.2	28.2	89	25.4	3	7	270	0.00	29.769 
20:20	28.1	28.1	28.1	89	25.3	3	10	248	0.00	29.772 
20:25	28.1	28.1	28.1	89	25.3	2	5	270	0.00	29.773 
20:30	28.1	28.1	28.1	89	25.3	3	6	248	0.00	29.775 
20:35	27.9	27.9	27.9	89	25.1	3	7	270	0.00	29.776 
20:40	27.9	27.9	27.9	89	25.1	2	9	248	0.00	29.778 
20:45	27.9	27.9	27.9	89	25.1	2	6	248	0.00	29.784 
20:50	27.8	23.2	27.8	89	25.0	4	10	248	0.00	29.788 
20:55	27.6	27.6	27.6	88	24.5	3	6	270	0.00	29.790 
21:00	27.5	27.5	27.5	88	24.4	3	6	270	0.00	29.792 
21:05	27.3	27.3	27.3	88	24.2	3	7	270	0.00	29.793 
21:10	27.3	22.6	27.3	88	24.2	4	9	270	0.00	29.799 
21:15	27.2	22.5	27.2	88	24.1	4	10	270	0.00	29.803 
21:20	27.2	22.5	27.2	87	23.9	4	10	270	0.00	29.805 
21:25	27.2	27.2	27.2	87	23.9	3	9	270	0.00	29.808 
21:30	27.2	27.2	27.2	87	23.9	3	9	270	0.00	29.815 
21:35	27.2	27.2	27.2	87	23.9	2	6	248	0.00	29.819 
21:40	27.0	27.0	27.0	87	23.7	3	12	270	0.00	29.821 
21:45	27.0	22.3	27.0	87	23.7	4	13	248	0.00	29.821 
21:50	27.0	27.0	27.0	87	23.7	3	6	248	0.00	29.823 
21:55	26.9	22.2	26.9	86	23.3	4	9	248	0.00	29.823 
22:00	26.9	26.9	26.9	86	23.3	3	10	248	0.00	29.827 
22:05	26.9	26.9	26.9	86	23.3	2	4	248	0.00	29.831 
22:10	26.9	26.9	26.9	86	23.3	3	8	270	0.00	29.833 
22:15	27.0	27.0	27.0	86	23.4	2	6	248	0.00	29.835 
22:20	27.0	27.0	27.0	86	23.4	2	6	248	0.00	29.837 
22:25	26.9	26.9	26.9	86	23.3	3	12	248	0.00	29.836 
22:30	26.9	26.9	26.9	86	23.3	3	12	270	0.00	29.836 
22:35	26.7	26.7	26.7	85	22.8	3	6	270	0.00	29.838 
22:40	26.7	26.7	26.7	85	22.8	3	6	270	0.00	29.838 
22:45	26.6	26.6	26.6	85	22.7	3	9	248	0.00	29.844 
22:50	26.4	26.4	26.4	85	22.5	3	6	270	0.00	29.846 
22:55	26.4	26.4	26.4	84	22.2	3	7	270	0.00	29.850 
23:00	26.3	21.5	26.3	84	22.1	4	11	248	0.00	29.852 
23:05	26.1	26.1	26.1	84	21.9	3	9	248	0.00	29.853 
23:10	26.1	26.1	26.1	84	21.9	3	6	248	0.00	29.855 
23:15	26.0	26.0	26.0	84	21.8	3	9	248	0.00	29.859 
23:20	26.0	26.0	26.0	84	21.8	2	5	248	0.00	29.864 
23:25	26.0	26.0	26.0	88	22.9	3	7	270	0.00	29.867 
23:30	25.8	25.8	25.8	84	21.6	2	6	248	0.00	29.869 
23:35	25.7	20.8	25.7	84	21.5	4	11	248	0.00	29.869 
23:40	25.6	20.7	25.6	84	21.5	4	9	270	0.00	29.872 
23:45	25.6	25.6	25.6	84	21.5	3	9	270	0.00	29.875 
23:50	25.6	20.7	25.6	84	21.5	4	9	270	0.00	29.881 
23:55	25.6	25.6	25.6	84	21.5	3	10	270	0.00	29.881 

CoCoRaHS
IN-AL-39
A2 Web Hosting
Creative Commons License
GoDaddy
search engine by freefind advanced

loaded 2018-11-13 21:19:45 • last modified 2010-11-18 10:43:29
Privacy PolicyDisclaimer
• wx.awcolley.com is powered by PmWiki v.2002016 •
• all content (unless otherwise noted) © 2018 A W Colley